Time;durP1;ratioP1;P1;durP2;ratioP2;P2;SDS_P1;SDS_P2;PMS_P1;PMS_P2;Temp;Humidity;BMP_temperature;BMP_pressure;BME280_temperature;BME280_humidity;BME280_pressure;Samples;Min_cycle;Max_cycle;Signal;HPM_P1;HPM_P2
2022/04/27 00:00:13;;;;;;;9.70;7.40;;;12.20;89.50;;;;;;7378893;19;20393;-49
2022/04/27 00:02:42;;;;;;;9.77;8.20;;;12.20;89.80;;;;;;7378882;19;20388;-48
2022/04/27 00:05:12;;;;;;;9.90;7.30;;;12.20;89.50;;;;;;7374668;19;20498;-48
2022/04/27 00:07:45;;;;;;;11.20;8.47;;;12.20;89.40;;;;;;7378860;19;20368;-48
2022/04/27 00:10:14;;;;;;;8.87;6.93;;;12.20;89.20;;;;;;7377329;19;20372;-48
2022/04/27 00:12:44;;;;;;;13.13;7.80;;;12.20;89.90;;;;;;7376739;19;20360;-48
2022/04/27 00:15:14;;;;;;;12.93;8.40;;;12.20;90.20;;;;;;7375612;19;20468;-48
2022/04/27 00:17:44;;;;;;;9.33;7.80;;;12.20;89.60;;;;;;7377781;19;20966;-48
2022/04/27 00:20:14;;;;;;;9.47;7.20;;;12.20;89.40;;;;;;7375097;19;20953;-48
2022/04/27 00:22:48;;;;;;;9.43;7.80;;;12.20;88.70;;;;;;7380763;19;20376;-49
2022/04/27 00:25:20;;;;;;;10.57;8.27;;;12.30;89.10;;;;;;7376911;19;20386;-49
2022/04/27 00:27:52;;;;;;;10.90;9.07;;;12.30;88.40;;;;;;7379061;19;20368;-48
2022/04/27 00:30:22;;;;;;;11.10;9.00;;;12.10;88.40;;;;;;7380514;19;20379;-48
2022/04/27 00:32:51;;;;;;;10.90;8.40;;;12.00;89.20;;;;;;7378183;19;20389;-48
2022/04/27 00:35:23;;;;;;;10.67;8.30;;;12.10;89.60;;;;;;7379064;19;20380;-48
2022/04/27 00:38:01;;;;;;;11.17;8.77;;;12.10;89.60;;;;;;7379681;19;20483;-48
2022/04/27 00:40:31;;;;;;;12.13;9.10;;;12.20;90.00;;;;;;7381380;19;20464;-48
2022/04/27 00:43:04;;;;;;;13.70;9.77;;;12.10;89.80;;;;;;7376340;19;20408;-48
2022/04/27 00:45:33;;;;;;;13.17;9.43;;;12.10;89.10;;;;;;7377973;19;20388;-48
2022/04/27 00:48:02;;;;;;;12.83;9.90;;;12.00;89.40;;;;;;7377638;19;20403;-48
2022/04/27 00:50:32;;;;;;;14.40;10.07;;;11.90;89.50;;;;;;7376422;19;20479;-48
2022/04/27 00:53:07;;;;;;;13.50;10.13;;;11.90;90.10;;;;;;7378580;19;20384;-49
2022/04/27 00:55:39;;;;;;;14.33;9.73;;;12.00;89.80;;;;;;7381108;19;20909;-48
2022/04/27 00:58:09;;;;;;;14.60;9.80;;;11.90;89.90;;;;;;7377242;19;20376;-48
2022/04/27 01:00:40;;;;;;;13.73;9.67;;;12.00;89.50;;;;;;7378088;19;20376;-48
2022/04/27 01:03:14;;;;;;;15.47;10.30;;;12.00;89.40;;;;;;7376427;19;20388;-48
2022/04/27 01:05:46;;;;;;;14.40;10.57;;;12.10;89.20;;;;;;7377021;19;20387;-48
2022/04/27 01:08:20;;;;;;;14.77;9.90;;;12.00;89.90;;;;;;7376312;19;20432;-48
2022/04/27 01:10:53;;;;;;;13.73;9.63;;;12.00;89.70;;;;;;7375136;19;20380;-48
2022/04/27 01:13:27;;;;;;;14.07;10.27;;;12.00;89.50;;;;;;7376958;19;20376;-48
2022/04/27 01:16:01;;;;;;;16.07;10.80;;;12.10;89.80;;;;;;7375855;19;20916;-49
2022/04/27 01:18:31;;;;;;;15.40;10.80;;;12.10;89.10;;;;;;7373496;19;20433;-48
2022/04/27 01:21:08;;;;;;;15.90;13.03;;;12.00;89.20;;;;;;7371986;19;20462;-48
2022/04/27 01:23:49;;;;;;;13.90;10.50;;;11.90;90.00;;;;;;7376913;19;20774;-48
2022/04/27 01:26:19;;;;;;;14.10;10.53;;;11.90;90.10;;;;;;7374701;19;20393;-48
2022/04/27 01:28:51;;;;;;;13.13;10.30;;;11.90;90.00;;;;;;7377087;19;20368;-48
2022/04/27 01:31:21;;;;;;;11.17;8.83;;;11.90;90.20;;;;;;7372039;19;20723;-48
2022/04/27 01:33:55;;;;;;;16.07;11.30;;;12.00;90.20;;;;;;7376305;19;20383;-48
2022/04/27 01:36:29;;;;;;;14.10;11.13;;;11.90;90.30;;;;;;7375453;19;20870;-47
2022/04/27 01:39:01;;;;;;;13.63;10.60;;;11.90;90.70;;;;;;7377453;19;20407;-49
2022/04/27 01:41:33;;;;;;;14.90;10.30;;;11.70;90.30;;;;;;7377978;19;20376;-48
2022/04/27 01:44:08;;;;;;;13.97;10.30;;;12.00;90.20;;;;;;7376706;19;20392;-47
2022/04/27 01:46:37;;;;;;;13.33;9.67;;;12.00;90.50;;;;;;7374853;19;20384;-48
2022/04/27 01:49:07;;;;;;;16.03;10.93;;;12.00;90.40;;;;;;7376029;19;20399;-48
2022/04/27 01:54:21;;;;;;;12.37;9.73;;;12.10;90.30;;;;;;7375334;19;20368;-49
2022/04/27 01:56:53;;;;;;;13.97;11.10;;;12.10;90.30;;;;;;7375972;19;20946;-48
2022/04/27 01:59:23;;;;;;;13.47;10.27;;;12.10;90.30;;;;;;7375822;19;20388;-48
2022/04/27 02:01:57;;;;;;;15.30;10.43;;;12.20;90.40;;;;;;7373072;19;20372;-48
2022/04/27 02:04:27;;;;;;;19.20;13.40;;;12.30;90.70;;;;;;7375808;19;20387;-48
2022/04/27 02:06:59;;;;;;;21.07;12.70;;;12.20;90.50;;;;;;7377313;19;20806;-48
2022/04/27 02:09:29;;;;;;;20.40;14.60;;;12.20;90.40;;;;;;7375077;19;20444;-48
2022/04/27 02:12:01;;;;;;;22.33;13.23;;;12.10;90.90;;;;;;7373550;19;20404;-48
2022/04/27 02:14:31;;;;;;;21.13;14.43;;;12.20;90.90;;;;;;7375290;19;20797;-48
2022/04/27 02:17:02;;;;;;;20.40;13.87;;;12.10;91.00;;;;;;7373058;19;20414;-48
2022/04/27 02:23:26;;;;;;;20.37;13.77;;;12.20;91.40;;;;;;7371075;19;20970;-48
2022/04/27 02:26:00;;;;;;;20.03;13.90;;;12.10;91.40;;;;;;7373941;19;20507;-48
2022/04/27 02:28:30;;;;;;;22.23;15.60;;;12.20;91.50;;;;;;7374542;19;20942;-48
2022/04/27 02:31:01;;;;;;;22.50;14.63;;;12.20;91.60;;;;;;7372842;19;20865;-48
2022/04/27 02:33:33;;;;;;;18.33;12.50;;;12.00;91.80;;;;;;7375821;19;20376;-48
2022/04/27 02:36:03;;;;;;;19.10;12.80;;;12.00;91.80;;;;;;7373520;19;20384;-48
2022/04/27 02:38:35;;;;;;;20.13;14.23;;;12.10;91.50;;;;;;7377846;19;20378;-48
2022/04/27 02:41:10;;;;;;;17.07;12.23;;;12.20;91.30;;;;;;7373717;19;20384;-48
2022/04/27 02:43:42;;;;;;;19.70;13.70;;;12.10;91.40;;;;;;7374151;19;21137;-49
2022/04/27 02:46:15;;;;;;;21.10;13.37;;;12.10;91.50;;;;;;7369998;19;20906;-48
2022/04/27 02:51:51;;;;;;;19.57;14.33;;;11.90;92.40;;;;;;7373754;19;20408;-49
2022/04/27 02:54:29;;;;;;;20.87;14.30;;;11.90;92.00;;;;;;7373189;19;20402;-47
2022/04/27 02:57:05;;;;;;;18.97;12.93;;;11.90;92.60;;;;;;7371607;19;20807;-47
2022/04/27 02:59:35;;;;;;;21.20;13.93;;;12.00;92.50;;;;;;7372453;19;20644;-46
2022/04/27 03:02:05;;;;;;;22.27;13.93;;;12.00;92.20;;;;;;7370573;19;20804;-47
2022/04/27 03:04:35;;;;;;;20.63;12.53;;;12.00;92.20;;;;;;7372546;19;20372;-47
2022/04/27 03:07:06;;;;;;;22.03;13.03;;;12.00;92.00;;;;;;7370987;19;20416;-47
2022/04/27 03:09:47;;;;;;;18.07;12.93;;;12.00;92.10;;;;;;7373838;19;20736;-47
2022/04/27 03:12:19;;;;;;;21.17;14.07;;;12.10;92.10;;;;;;7373221;19;20753;-47
2022/04/27 03:14:54;;;;;;;18.00;12.97;;;12.10;92.20;;;;;;7371836;19;20423;-47
2022/04/27 03:17:24;;;;;;;21.50;12.70;;;12.20;92.10;;;;;;7371167;19;21174;-47
2022/04/27 03:19:54;;;;;;;20.10;13.07;;;12.20;91.90;;;;;;7373325;19;21013;-47
2022/04/27 03:22:24;;;;;;;18.17;12.07;;;12.10;92.00;;;;;;7372267;19;20494;-47
2022/04/27 03:24:56;;;;;;;18.93;11.70;;;12.10;91.90;;;;;;7371879;19;20910;-47
2022/04/27 03:27:33;;;;;;;18.13;12.53;;;12.10;92.50;;;;;;7367155;19;21146;-47
2022/04/27 03:30:04;;;;;;;18.00;12.10;;;12.20;92.00;;;;;;7373446;19;20382;-47
2022/04/27 03:32:36;;;;;;;18.37;11.50;;;11.90;92.10;;;;;;7370116;19;20480;-47
2022/04/27 03:35:07;;;;;;;19.17;12.67;;;11.80;92.50;;;;;;7371531;19;21012;-47
2022/04/27 03:37:38;;;;;;;19.40;12.30;;;11.80;92.60;;;;;;7372439;19;20368;-47
2022/04/27 03:40:11;;;;;;;19.10;12.87;;;11.80;93.00;;;;;;7372707;19;20376;-48
2022/04/27 03:42:43;;;;;;;17.03;11.80;;;11.90;92.90;;;;;;7375846;19;20957;-48
2022/04/27 03:45:15;;;;;;;16.37;11.63;;;11.90;92.80;;;;;;7382043;19;20383;-48
2022/04/27 03:47:45;;;;;;;16.17;10.60;;;11.90;93.00;;;;;;7376581;19;20376;-47
2022/04/27 03:50:19;;;;;;;19.50;10.93;;;12.20;93.20;;;;;;7379833;19;20368;-47
2022/04/27 03:52:55;;;;;;;15.60;11.80;;;11.90;93.00;;;;;;7378959;19;20642;-47
2022/04/27 03:55:33;;;;;;;20.97;13.03;;;11.90;93.10;;;;;;7377928;19;20368;-47
2022/04/27 03:58:06;;;;;;;19.63;11.60;;;11.90;93.30;;;;;;7379038;19;20379;-47
2022/04/27 04:00:37;;;;;;;19.77;12.83;;;11.90;93.10;;;;;;7379681;19;20404;-47
2022/04/27 04:03:18;;;;;;;16.20;11.00;;;12.00;93.50;;;;;;7378299;19;20387;-47
2022/04/27 04:05:49;;;;;;;17.27;11.67;;;11.80;93.20;;;;;;7379577;19;20929;-47
2022/04/27 04:08:20;;;;;;;16.90;10.67;;;11.80;93.30;;;;;;7378370;19;20368;-47
2022/04/27 04:10:53;;;;;;;22.00;11.63;;;11.90;93.20;;;;;;7380113;19;21196;-47
2022/04/27 04:13:25;;;;;;;17.93;12.27;;;11.90;93.20;;;;;;7379023;19;20376;-47
2022/04/27 04:16:13;;;;;;;18.07;11.80;;;11.80;93.40;;;;;;7380372;19;20981;-47
2022/04/27 04:19:10;;;;;;;19.70;12.00;;;11.80;93.60;;;;;;7376916;19;20543;-47
2022/04/27 04:22:00;;;;;;;17.77;11.70;;;11.80;93.80;;;;;;7374286;19;20436;-47
2022/04/27 04:28:29;;;;;;;16.90;12.03;;;11.80;93.80;;;;;;7379490;19;20447;-47
2022/04/27 04:30:20;;;;;;;17.90;11.27;;;12.00;93.40;;;;;;7377989;19;20715;-48
2022/04/27 04:32:59;;;;;;;19.17;13.23;;;12.10;92.60;;;;;;7374250;19;20418;-47
2022/04/27 04:35:46;;;;;;;17.87;12.23;;;12.10;92.60;;;;;;7378514;19;20395;-47
2022/04/27 04:38:16;;;;;;;21.17;13.90;;;11.80;93.10;;;;;;7377588;19;20372;-47
2022/04/27 04:40:50;;;;;;;21.37;13.40;;;11.80;93.10;;;;;;7375279;19;20379;-47
2022/04/27 04:43:23;;;;;;;21.00;13.30;;;11.60;93.80;;;;;;7378769;19;20907;-47
2022/04/27 04:45:55;;;;;;;20.10;13.00;;;11.70;93.70;;;;;;7377184;19;20372;-47
2022/04/27 04:49:00;;;;;;;20.63;12.43;;;11.60;93.70;;;;;;7377901;19;20474;-47
2022/04/27 04:51:30;;;;;;;19.80;13.70;;;11.60;93.90;;;;;;7378239;19;20364;-48
2022/04/27 04:54:21;;;;;;;24.73;14.00;;;11.70;94.10;;;;;;7378750;19;20405;-47
2022/04/27 04:56:59;;;;;;;22.70;14.40;;;11.60;93.90;;;;;;7378434;19;20400;-47
2022/04/27 04:59:53;;;;;;;19.20;13.07;;;11.70;93.90;;;;;;7380046;19;20726;-48
2022/04/27 05:02:49;;;;;;;20.63;13.80;;;11.80;93.50;;;;;;7376623;19;20384;-47
2022/04/27 05:05:41;;;;;;;22.33;14.23;;;11.70;93.80;;;;;;7380211;19;20407;-47
2022/04/27 05:08:31;;;;;;;19.23;13.20;;;11.60;94.30;;;;;;7377871;19;20396;-47
2022/04/27 05:11:16;;;;;;;19.80;12.93;;;11.60;94.30;;;;;;7375031;19;20368;-47
2022/04/27 05:14:05;;;;;;;23.83;15.10;;;11.70;94.50;;;;;;7376853;19;20372;-47
2022/04/27 05:17:00;;;;;;;19.97;13.10;;;11.80;94.40;;;;;;7376108;19;20958;-47
2022/04/27 05:20:23;;;;;;;21.20;14.57;;;11.80;94.50;;;;;;7374038;19;20404;-47
2022/04/27 05:23:07;;;;;;;22.50;15.10;;;11.90;94.40;;;;;;7378601;19;20432;-47
2022/04/27 05:25:58;;;;;;;22.53;13.93;;;12.00;94.10;;;;;;7378056;19;20375;-47
2022/04/27 05:32:04;;;;;;;23.93;13.30;;;11.90;94.20;;;;;;7374346;19;20723;-47
2022/04/27 05:34:43;;;;;;;23.37;15.00;;;11.70;94.10;;;;;;7377430;19;20480;-47
2022/04/27 05:37:36;;;;;;;24.03;15.37;;;11.80;94.20;;;;;;7378722;19;20905;-47
2022/04/27 05:40:10;;;;;;;26.13;14.87;;;11.70;94.40;;;;;;7378297;19;20924;-47
2022/04/27 05:43:09;;;;;;;26.33;15.27;;;11.70;94.30;;;;;;7378693;19;20985;-48
2022/04/27 05:45:55;;;;;;;26.90;15.33;;;11.70;94.80;;;;;;7375156;19;20380;-49
2022/04/27 05:48:54;;;;;;;24.00;15.30;;;11.80;94.60;;;;;;7376053;19;21009;-47
2022/04/27 05:51:42;;;;;;;30.23;18.23;;;11.60;94.70;;;;;;7375962;19;20377;-47
2022/04/27 05:54:27;;;;;;;27.57;16.17;;;11.60;95.30;;;;;;7374251;19;20391;-47
2022/04/27 05:57:21;;;;;;;21.63;14.90;;;11.70;94.90;;;;;;7376326;19;20470;-47
2022/04/27 06:00:10;;;;;;;23.77;15.87;;;11.90;94.60;;;;;;7376174;19;20400;-49
2022/04/27 06:02:48;;;;;;;25.37;15.50;;;12.10;93.90;;;;;;7374502;19;20368;-47
2022/04/27 06:05:25;;;;;;;21.63;14.00;;;12.20;93.00;;;;;;7374613;19;20391;-47
2022/04/27 06:07:57;;;;;;;24.80;15.30;;;12.30;93.10;;;;;;7372949;19;20374;-47
2022/04/27 06:10:29;;;;;;;24.80;16.30;;;12.40;92.80;;;;;;7376775;19;20878;-47
2022/04/27 06:13:04;;;;;;;25.67;16.27;;;12.60;92.50;;;;;;7376027;19;20776;-47
2022/04/27 06:15:51;;;;;;;22.97;15.37;;;12.70;92.30;;;;;;7373996;19;20376;-48
2022/04/27 06:18:40;;;;;;;22.37;14.97;;;12.80;91.90;;;;;;7371433;19;21027;-48
2022/04/27 06:21:17;;;;;;;21.40;14.60;;;12.80;91.80;;;;;;7376530;19;20379;-48
2022/04/27 06:23:50;;;;;;;26.00;17.23;;;12.80;91.40;;;;;;7374140;19;20936;-48
2022/04/27 06:26:22;;;;;;;22.27;14.90;;;12.90;91.50;;;;;;7373710;19;20790;-48
2022/04/27 06:28:51;;;;;;;25.20;15.03;;;12.80;91.60;;;;;;7371173;19;20378;-47
2022/04/27 06:31:21;;;;;;;28.00;16.13;;;12.90;91.80;;;;;;7373230;19;20964;-49
2022/04/27 06:33:55;;;;;;;22.27;14.53;;;12.90;91.80;;;;;;7375446;19;20385;-47
2022/04/27 06:36:29;;;;;;;25.23;15.70;;;12.90;91.20;;;;;;7376709;19;20428;-48
2022/04/27 06:39:01;;;;;;;16.67;11.97;;;13.00;91.40;;;;;;7372448;19;21403;-48
2022/04/27 06:41:38;;;;;;;19.23;13.77;;;13.00;91.80;;;;;;7378048;19;20723;-48
2022/04/27 06:44:16;;;;;;;23.30;14.97;;;13.10;91.30;;;;;;7375119;19;20463;-48
2022/04/27 06:47:05;;;;;;;18.53;12.57;;;13.00;90.10;;;;;;7372920;19;20925;-48
2022/04/27 06:50:12;;;;;;;17.93;12.20;;;13.00;90.80;;;;;;7372298;19;20364;-48
2022/04/27 06:53:05;;;;;;;21.57;13.40;;;13.10;90.50;;;;;;7375977;19;20464;-48
2022/04/27 06:55:50;;;;;;;23.53;13.23;;;13.00;90.60;;;;;;7375851;19;20976;-48
2022/04/27 06:58:44;;;;;;;18.97;12.57;;;13.00;90.70;;;;;;7373480;19;20439;-48
2022/04/27 07:01:22;;;;;;;21.87;14.47;;;13.00;90.80;;;;;;7373953;19;20372;-48
2022/04/27 07:03:55;;;;;;;21.33;12.23;;;12.90;91.00;;;;;;7373818;19;20395;-48
2022/04/27 07:06:28;;;;;;;21.23;12.80;;;12.90;91.10;;;;;;7374967;19;20376;-47
2022/04/27 07:09:03;;;;;;;19.40;12.80;;;13.00;91.00;;;;;;7369507;19;20399;-49
2022/04/27 07:11:36;;;;;;;17.53;12.00;;;13.20;90.70;;;;;;7376750;19;20756;-49
2022/04/27 07:14:06;;;;;;;16.03;11.47;;;13.10;90.40;;;;;;7376725;19;20380;-48
2022/04/27 07:16:37;;;;;;;17.17;11.43;;;13.20;90.30;;;;;;7373940;19;20368;-47
2022/04/27 07:19:09;;;;;;;17.40;11.23;;;13.30;90.70;;;;;;7378324;19;20708;-47
2022/04/27 07:21:38;;;;;;;15.20;11.00;;;13.20;90.40;;;;;;7381327;19;20921;-48
2022/04/27 07:24:12;;;;;;;13.50;9.37;;;13.20;90.10;;;;;;7382006;19;20372;-48
2022/04/27 07:26:42;;;;;;;16.43;11.10;;;13.20;90.40;;;;;;7380473;19;20376;-48
2022/04/27 07:29:14;;;;;;;15.70;10.40;;;13.20;90.40;;;;;;7383877;19;20921;-48
2022/04/27 07:31:46;;;;;;;14.67;10.63;;;13.20;90.80;;;;;;7380244;19;20376;-48
2022/04/27 07:34:16;;;;;;;11.60;8.90;;;13.30;90.40;;;;;;7379027;19;20737;-48
2022/04/27 07:36:48;;;;;;;14.80;10.73;;;13.20;89.40;;;;;;7383125;19;20368;-48
2022/04/27 07:39:20;;;;;;;12.23;8.20;;;13.10;89.50;;;;;;7379589;19;20372;-48
2022/04/27 07:41:50;;;;;;;13.03;8.97;;;13.20;90.30;;;;;;7382369;19;20415;-48
2022/04/27 07:44:19;;;;;;;11.63;9.27;;;13.30;90.20;;;;;;7381891;19;20372;-49
2022/04/27 07:46:51;;;;;;;11.50;8.47;;;13.40;88.80;;;;;;7378494;19;20380;-48
2022/04/27 07:49:22;;;;;;;12.20;8.70;;;13.50;90.00;;;;;;7380459;19;20390;-48
2022/04/27 07:51:53;;;;;;;13.00;8.60;;;13.70;88.40;;;;;;7382384;19;20379;-48
2022/04/27 07:54:25;;;;;;;15.60;10.87;;;13.80;87.60;;;;;;7381022;19;20476;-48
2022/04/27 07:56:54;;;;;;;13.60;9.60;;;13.80;86.20;;;;;;7381090;19;20368;-49
2022/04/27 07:59:25;;;;;;;12.97;9.77;;;13.70;86.60;;;;;;7381827;19;20412;-48
2022/04/27 08:01:57;;;;;;;12.83;8.97;;;13.80;87.00;;;;;;7381619;19;20902;-48
2022/04/27 08:04:26;;;;;;;11.50;8.67;;;13.90;86.10;;;;;;7379958;19;20376;-48
2022/04/27 08:06:56;;;;;;;13.63;8.57;;;14.10;83.50;;;;;;7378190;19;20418;-49
2022/04/27 08:09:28;;;;;;;13.13;9.07;;;14.20;85.00;;;;;;7380355;19;20411;-48
2022/04/27 08:11:58;;;;;;;9.87;7.50;;;14.60;83.90;;;;;;7382582;19;20435;-48
2022/04/27 08:14:29;;;;;;;11.27;8.47;;;15.00;81.60;;;;;;7379929;19;20411;-48
2022/04/27 08:17:01;;;;;;;10.67;7.50;;;15.30;76.60;;;;;;7378549;19;20990;-49
2022/04/27 08:19:33;;;;;;;10.63;7.30;;;15.10;75.30;;;;;;7374824;19;20432;-48
2022/04/27 08:22:02;;;;;;;11.00;7.73;;;15.10;74.80;;;;;;7379504;19;20387;-48
2022/04/27 08:24:40;;;;;;;10.73;8.60;;;15.20;75.50;;;;;;7379901;19;20400;-48
2022/04/27 08:27:09;;;;;;;11.07;8.67;;;15.30;76.40;;;;;;7379255;19;20368;-48
2022/04/27 08:29:38;;;;;;;10.40;7.80;;;15.60;75.10;;;;;;7373746;19;20412;-48
2022/04/27 08:32:09;;;;;;;13.53;9.00;;;15.60;71.40;;;;;;7380604;19;20393;-48
2022/04/27 08:34:38;;;;;;;9.47;7.37;;;15.50;72.40;;;;;;7378399;19;20416;-48
2022/04/27 08:37:10;;;;;;;9.70;7.37;;;15.80;71.60;;;;;;7381457;19;20417;-48
2022/04/27 08:39:44;;;;;;;11.93;8.97;;;16.00;68.30;;;;;;7379259;19;20380;-48
2022/04/27 08:42:15;;;;;;;9.30;7.63;;;15.80;68.60;;;;;;7380758;19;20783;-48
2022/04/27 08:44:44;;;;;;;12.10;8.30;;;16.00;67.90;;;;;;7375907;19;20364;-48
2022/04/27 08:47:13;;;;;;;13.53;9.60;;;16.10;67.50;;;;;;7378751;19;20403;-48
2022/04/27 08:49:43;;;;;;;11.87;8.10;;;16.20;68.20;;;;;;7379263;19;20388;-49
2022/04/27 08:52:15;;;;;;;11.47;8.97;;;16.30;68.40;;;;;;7373917;19;21024;-48
2022/04/27 08:54:50;;;;;;;12.13;9.30;;;16.60;64.90;;;;;;7377630;19;20420;-48
2022/04/27 08:57:22;;;;;;;8.80;7.60;;;16.50;63.80;;;;;;7377219;19;20412;-48
2022/04/27 08:59:52;;;;;;;11.47;8.70;;;16.60;64.70;;;;;;7377471;19;20693;-48
2022/04/27 09:02:28;;;;;;;11.90;8.33;;;16.70;62.40;;;;;;7375528;19;21012;-48
2022/04/27 09:05:11;;;;;;;10.93;8.23;;;16.70;63.50;;;;;;7379768;19;20372;-48
2022/04/27 09:07:42;;;;;;;13.30;8.33;;;16.40;61.60;;;;;;7379574;19;20368;-48
2022/04/27 09:10:17;;;;;;;12.67;7.57;;;16.40;63.60;;;;;;7379948;19;20377;-48
2022/04/27 09:12:49;;;;;;;10.80;8.00;;;16.80;61.50;;;;;;7379602;19;20913;-49
2022/04/27 09:15:20;;;;;;;10.83;7.40;;;17.30;61.60;;;;;;7377233;19;20372;-50
2022/04/27 09:20:50;;;;;;;7.90;6.17;;;17.80;58.60;;;;;;7377652;19;20376;-48
2022/04/27 09:23:25;;;;;;;9.37;6.67;;;17.60;57.10;;;;;;7376239;19;20380;-48
2022/04/27 09:26:00;;;;;;;12.83;7.40;;;17.60;57.10;;;;;;7380024;19;20375;-48
2022/04/27 09:28:33;;;;;;;8.80;6.27;;;17.80;57.10;;;;;;7378965;19;20412;-48
2022/04/27 09:31:03;;;;;;;8.47;6.50;;;17.80;56.60;;;;;;7378029;19;20410;-49
2022/04/27 09:33:34;;;;;;;8.20;7.10;;;17.50;56.80;;;;;;7376720;19;20400;-48
2022/04/27 09:36:23;;;;;;;8.37;6.60;;;17.20;58.00;;;;;;7378711;19;20382;-48
2022/04/27 09:38:53;;;;;;;8.13;6.00;;;17.10;58.10;;;;;;7378090;19;21134;-48
2022/04/27 09:41:42;;;;;;;8.47;6.43;;;16.90;59.50;;;;;;7377849;19;21476;-49
2022/04/27 09:44:29;;;;;;;9.53;6.00;;;17.00;59.00;;;;;;7374131;19;20416;-48
2022/04/27 09:47:00;;;;;;;7.47;5.50;;;16.90;58.60;;;;;;7375803;19;20399;-50
2022/04/27 09:49:31;;;;;;;6.90;5.13;;;16.80;58.60;;;;;;7376085;19;20798;-48
2022/04/27 09:52:02;;;;;;;7.83;5.63;;;16.80;58.80;;;;;;7378032;19;20368;-48
2022/04/27 09:54:34;;;;;;;6.83;4.97;;;16.90;58.90;;;;;;7376719;19;20372;-48
2022/04/27 09:57:08;;;;;;;4.30;3.73;;;17.10;58.70;;;;;;7377108;19;20372;-49
2022/04/27 09:59:40;;;;;;;7.67;4.70;;;17.10;56.10;;;;;;7371817;19;20380;-48
2022/04/27 10:02:11;;;;;;;5.37;4.47;;;17.00;56.10;;;;;;7374715;19;20963;-48
2022/04/27 10:04:46;;;;;;;5.30;3.53;;;16.80;57.20;;;;;;7376827;19;20384;-48
2022/04/27 10:07:18;;;;;;;4.43;3.77;;;16.90;57.00;;;;;;7376236;19;20381;-48
2022/04/27 10:09:49;;;;;;;3.50;3.10;;;17.00;55.80;;;;;;7374885;19;20465;-48
2022/04/27 10:12:24;;;;;;;4.10;3.47;;;17.40;56.30;;;;;;7377115;19;20400;-49
2022/04/27 10:14:57;;;;;;;4.80;4.00;;;17.50;54.60;;;;;;7371731;19;20398;-49
2022/04/27 10:17:30;;;;;;;109.00;20.47;;;17.60;55.00;;;;;;7374067;19;21030;-48
2022/04/27 10:20:02;;;;;;;5.53;4.03;;;17.80;55.30;;;;;;7377130;19;20432;-41
2022/04/27 10:22:34;;;;;;;4.37;3.63;;;18.10;54.30;;;;;;7375853;19;20399;-40
2022/04/27 10:25:09;;;;;;;3.90;3.50;;;18.40;54.60;;;;;;7377212;19;20416;-38
2022/04/27 10:27:45;;;;;;;4.33;3.30;;;18.60;52.80;;;;;;7372990;19;20463;-40
2022/04/27 10:30:17;;;;;;;5.07;4.50;;;18.80;52.50;;;;;;7373389;19;20372;-38
2022/04/27 10:32:47;;;;;;;4.63;3.47;;;18.70;52.10;;;;;;7376728;19;20391;-41
2022/04/27 10:35:27;;;;;;;2.97;2.60;;;18.50;51.60;;;;;;7375806;19;20661;-41
2022/04/27 10:37:59;;;;;;;4.57;3.67;;;18.50;52.20;;;;;;7373179;19;20379;-41
2022/04/27 10:40:30;;;;;;;4.40;3.27;;;18.30;52.20;;;;;;7371840;19;20376;-41
2022/04/27 10:43:28;;;;;;;3.70;3.40;;;18.00;52.20;;;;;;7376480;19;20376;-40
2022/04/27 10:45:59;;;;;;;3.80;3.10;;;18.00;52.70;;;;;;7372727;19;20384;-40
2022/04/27 10:48:49;;;;;;;6.07;3.97;;;17.90;53.50;;;;;;7374186;19;20739;-40
2022/04/27 10:51:21;;;;;;;3.43;3.13;;;17.70;53.30;;;;;;7374738;19;20380;-48
2022/04/27 10:53:53;;;;;;;5.80;3.30;;;17.40;54.00;;;;;;7374099;19;20380;-48
2022/04/27 10:56:26;;;;;;;4.10;3.30;;;17.20;54.70;;;;;;7376377;19;21372;-48
2022/04/27 10:59:02;;;;;;;4.13;3.20;;;17.40;54.70;;;;;;7376035;19;20361;-50
2022/04/27 11:01:34;;;;;;;3.90;3.53;;;17.40;54.30;;;;;;7373492;19;20437;-48
2022/04/27 11:04:14;;;;;;;3.93;2.83;;;17.30;54.00;;;;;;7376293;19;20372;-49
2022/04/27 11:07:15;;;;;;;3.53;3.20;;;17.50;54.40;;;;;;7374014;19;20403;-48
2022/04/27 11:10:14;;;;;;;4.63;2.93;;;17.60;54.00;;;;;;7373542;19;20375;-48
2022/04/27 11:12:46;;;;;;;3.90;3.23;;;17.90;54.00;;;;;;7374767;19;20377;-48
2022/04/27 11:15:21;;;;;;;5.50;4.07;;;18.00;53.00;;;;;;7373420;19;20372;-48
2022/04/27 11:18:00;;;;;;;5.07;3.60;;;18.00;53.20;;;;;;7371975;19;20436;-48
2022/04/27 11:20:35;;;;;;;4.20;3.10;;;18.00;53.10;;;;;;7373784;19;20395;-48
2022/04/27 11:23:07;;;;;;;4.77;4.37;;;17.90;52.70;;;;;;7373251;19;20937;-48
2022/04/27 11:25:38;;;;;;;4.73;3.63;;;18.00;53.00;;;;;;7375676;19;20391;-48
2022/04/27 11:28:11;;;;;;;3.73;3.43;;;18.10;53.30;;;;;;7372800;19;20378;-48
2022/04/27 11:30:43;;;;;;;4.70;3.73;;;18.40;51.50;;;;;;7373031;19;20380;-48
2022/04/27 11:33:21;;;;;;;4.07;3.70;;;19.90;50.70;;;;;;7373889;19;20450;-49
2022/04/27 11:35:50;;;;;;;3.50;3.20;;;21.50;44.20;;;;;;7376431;19;20413;-49
2022/04/27 11:38:23;;;;;;;3.77;3.47;;;22.30;44.00;;;;;;7372736;19;20751;-49
2022/04/27 11:40:55;;;;;;;3.13;2.87;;;23.30;42.50;;;;;;7375211;19;20376;-47
2022/04/27 11:43:29;;;;;;;4.50;4.10;;;24.60;40.20;;;;;;7376732;19;20819;-47
2022/04/27 11:46:01;;;;;;;3.30;3.00;;;25.60;36.40;;;;;;7373116;19;20914;-48
2022/04/27 11:48:33;;;;;;;4.77;4.27;;;26.10;36.00;;;;;;7373559;19;21016;-46
2022/04/27 11:51:06;;;;;;;4.10;3.70;;;26.40;34.00;;;;;;7374992;19;20375;-47
2022/04/27 11:53:49;;;;;;;5.70;4.67;;;25.30;35.10;;;;;;7375306;19;20387;-46
2022/04/27 11:56:20;;;;;;;4.23;3.83;;;24.80;35.80;;;;;;7374092;19;20392;-47
2022/04/27 11:58:50;;;;;;;3.97;3.67;;;25.10;36.00;;;;;;7374364;19;20439;-47
2022/04/27 12:01:26;;;;;;;5.77;3.87;;;26.10;33.70;;;;;;7370302;19;20376;-48
2022/04/27 12:03:58;;;;;;;4.00;3.70;;;26.20;32.90;;;;;;7374363;19;21108;-49
2022/04/27 12:06:29;;;;;;;4.10;3.80;;;25.70;34.20;;;;;;7382578;19;20380;-47
2022/04/27 12:09:02;;;;;;;4.30;3.90;;;26.30;32.80;;;;;;7378852;19;20420;-47
2022/04/27 12:11:35;;;;;;;6.20;4.27;;;25.70;33.50;;;;;;7382419;19;20393;-48
2022/04/27 12:14:07;;;;;;;4.10;3.70;;;25.10;33.90;;;;;;7380077;19;20376;-46
2022/04/27 12:16:43;;;;;;;6.20;4.00;;;24.80;34.70;;;;;;7374207;19;20382;-49
2022/04/27 12:19:13;;;;;;;4.60;4.20;;;23.70;36.50;;;;;;7378416;19;20437;-46
2022/04/27 12:21:45;;;;;;;4.47;4.07;;;22.40;38.10;;;;;;7377369;19;20733;-46
2022/04/27 12:24:20;;;;;;;4.90;3.67;;;21.90;39.50;;;;;;7378862;19;20478;-49
2022/04/27 12:26:49;;;;;;;4.30;3.90;;;21.50;40.60;;;;;;7379321;19;20375;-48
2022/04/27 12:29:27;;;;;;;3.83;3.43;;;21.40;39.90;;;;;;7378501;19;20395;-48
2022/04/27 12:32:02;;;;;;;4.20;3.80;;;21.30;40.20;;;;;;7380115;19;20818;-47
2022/04/27 12:37:32;;;;;;;4.50;4.07;;;21.10;40.70;;;;;;7380905;19;20921;-47
2022/04/27 12:40:15;;;;;;;3.80;3.40;;;20.50;41.70;;;;;;7379289;19;20419;-49
2022/04/27 12:43:04;;;;;;;4.13;3.73;;;20.40;42.40;;;;;;7379985;19;20397;-47
2022/04/27 12:45:35;;;;;;;3.60;3.30;;;20.50;42.90;;;;;;7372505;19;20664;-47
2022/04/27 12:48:30;;;;;;;3.10;2.80;;;21.10;42.20;;;;;;7377330;19;20361;-49
2022/04/27 12:51:01;;;;;;;3.50;3.20;;;21.70;41.10;;;;;;7376154;19;20408;-48
2022/04/27 12:53:33;;;;;;;3.93;3.20;;;21.80;39.90;;;;;;7379537;19;20936;-48
2022/04/27 12:56:06;;;;;;;5.20;3.60;;;21.80;40.60;;;;;;7380493;19;20404;-49
2022/04/27 12:58:36;;;;;;;3.70;3.37;;;21.50;40.00;;;;;;7379623;19;20747;-47
2022/04/27 13:01:07;;;;;;;3.83;3.50;;;20.60;41.50;;;;;;7377958;19;20739;-47
2022/04/27 13:03:39;;;;;;;3.87;3.50;;;20.20;42.70;;;;;;7380886;19;20380;-47
2022/04/27 13:06:08;;;;;;;4.03;3.27;;;19.80;43.20;;;;;;7377438;19;20731;-47
2022/04/27 13:08:40;;;;;;;3.80;3.50;;;19.40;44.00;;;;;;7377894;19;20404;-47
2022/04/27 13:13:57;;;;;;;6.77;4.20;;;18.80;46.00;;;;;;7375756;19;20412;-47
2022/04/27 13:16:26;;;;;;;4.47;3.67;;;18.60;47.10;;;;;;7376529;19;20412;-47
2022/04/27 13:19:01;;;;;;;5.70;3.93;;;18.40;47.00;;;;;;7377642;19;20812;-47
2022/04/27 13:21:31;;;;;;;7.13;3.93;;;18.30;47.40;;;;;;7268062;19;2016446;-47
2022/04/27 13:24:00;;;;;;;4.63;4.20;;;18.10;47.90;;;;;;7375660;19;20380;-47
2022/04/27 13:26:30;;;;;;;7.40;5.00;;;18.10;48.20;;;;;;7378986;19;20424;-47
2022/04/27 13:29:01;;;;;;;7.60;5.57;;;18.10;48.90;;;;;;7376456;19;20409;-47
2022/04/27 13:31:34;;;;;;;8.23;4.80;;;18.10;49.20;;;;;;7377391;19;20411;-47
2022/04/27 13:34:09;;;;;;;5.73;4.47;;;18.20;48.70;;;;;;7378372;19;21017;-48
2022/04/27 13:36:38;;;;;;;9.43;4.43;;;18.30;49.10;;;;;;7375942;19;20955;-48
2022/04/27 13:39:08;;;;;;;5.27;3.87;;;18.30;49.70;;;;;;7375250;19;20398;-47